createdAt,value
2017-04-22T00:00:33.506Z,12.50
2017-04-22T00:01:31.414Z,12.50
2017-04-22T00:02:29.250Z,12.60
2017-04-22T00:03:26.713Z,12.60
2017-04-22T00:04:24.529Z,12.60
2017-04-22T00:05:22.375Z,12.60
2017-04-22T00:06:20.201Z,12.60
2017-04-22T00:07:17.685Z,12.50
2017-04-22T00:08:15.142Z,12.50
2017-04-22T00:09:12.957Z,12.60
2017-04-22T00:10:10.777Z,12.60
2017-04-22T00:11:08.638Z,12.70
2017-04-22T00:12:06.466Z,12.70
2017-04-22T00:13:04.318Z,12.60
2017-04-22T00:14:02.175Z,12.70
2017-04-22T00:15:00.012Z,12.70
2017-04-22T00:15:58.593Z,12.70
2017-04-22T00:16:56.438Z,12.80
2017-04-22T00:17:54.258Z,12.80
2017-04-22T00:18:52.154Z,12.80
2017-04-22T00:19:49.969Z,12.70
2017-04-22T00:20:48.183Z,12.70
2017-04-22T00:21:45.644Z,12.80
2017-04-22T00:22:43.453Z,12.70
2017-04-22T00:23:41.261Z,12.60
2017-04-22T00:24:38.794Z,12.60
2017-04-22T00:25:36.630Z,12.70
2017-04-22T00:26:34.453Z,12.70
2017-04-22T00:27:32.329Z,12.70
2017-04-22T00:28:30.133Z,12.80
2017-04-22T00:29:27.949Z,12.80
2017-04-22T00:30:25.829Z,12.80
2017-04-22T00:31:23.641Z,12.80
2017-04-22T00:32:21.581Z,12.80
2017-04-22T00:33:19.569Z,12.70
2017-04-22T00:34:17.014Z,12.70
2017-04-22T00:35:14.846Z,12.50
2017-04-22T00:36:12.969Z,12.40
2017-04-22T00:37:10.809Z,12.40
2017-04-22T00:38:08.283Z,12.40
2017-04-22T00:39:06.166Z,12.30
2017-04-22T00:40:03.990Z,12.30
2017-04-22T00:41:01.801Z,12.30
2017-04-22T00:41:59.660Z,12.30
2017-04-22T00:42:57.497Z,12.40
2017-04-22T00:43:55.318Z,12.40
2017-04-22T00:44:53.505Z,12.50
2017-04-22T00:45:51.316Z,12.40
2017-04-22T00:46:49.670Z,12.30
2017-04-22T00:47:47.598Z,12.30
2017-04-22T00:48:45.041Z,12.30
2017-04-22T00:49:43.276Z,12.30
2017-04-22T00:50:41.481Z,12.30
2017-04-22T00:51:39.301Z,12.40
2017-04-22T00:52:37.207Z,12.40
2017-04-22T00:53:35.117Z,12.40
2017-04-22T00:54:33.298Z,12.50
2017-04-22T00:55:31.105Z,12.50
2017-04-22T00:56:28.921Z,12.60
2017-04-22T00:57:26.766Z,12.60
2017-04-22T00:58:24.649Z,12.60
2017-04-22T00:59:22.121Z,12.60
2017-04-22T01:00:20.008Z,12.50
2017-04-22T01:01:17.826Z,12.50
2017-04-22T01:02:16.516Z,12.50
2017-04-22T01:03:14.337Z,12.50
2017-04-22T01:04:12.160Z,12.60
2017-04-22T01:05:10.017Z,12.60
2017-04-22T01:06:07.857Z,12.70
2017-04-22T01:07:05.416Z,12.70
2017-04-22T01:08:03.601Z,12.80
2017-04-22T01:09:01.083Z,12.80
2017-04-22T01:09:58.893Z,12.80
2017-04-22T01:10:57.150Z,12.70
2017-04-22T01:11:54.589Z,12.70
2017-04-22T01:12:52.402Z,12.70
2017-04-22T01:13:50.231Z,12.70
2017-04-22T01:14:48.045Z,12.70
2017-04-22T01:15:45.891Z,12.60
2017-04-22T01:16:44.135Z,12.50
2017-04-22T01:17:41.958Z,12.50
2017-04-22T01:18:39.730Z,12.50
2017-04-22T01:19:37.661Z,12.50
2017-04-22T01:20:35.849Z,12.50
2017-04-22T01:21:33.277Z,12.50
2017-04-22T01:22:30.741Z,12.50
2017-04-22T01:23:28.942Z,12.40
2017-04-22T01:24:26.783Z,12.30
2017-04-22T01:25:24.597Z,12.20
2017-04-22T01:26:22.421Z,12.20
2017-04-22T01:27:20.238Z,12.20
2017-04-22T01:28:17.701Z,12.20
2017-04-22T01:29:15.513Z,12.30
2017-04-22T01:30:12.980Z,12.30
2017-04-22T01:31:10.477Z,12.20
2017-04-22T01:32:08.316Z,12.20
2017-04-22T01:33:05.746Z,12.20
2017-04-22T01:34:03.972Z,12.20
2017-04-22T01:35:01.814Z,12.20
2017-04-22T01:35:59.690Z,12.20
2017-04-22T01:36:57.965Z,12.20
2017-04-22T01:37:55.871Z,12.20
2017-04-22T01:38:53.722Z,12.30
2017-04-22T01:39:51.577Z,12.30
2017-04-22T01:40:48.990Z,12.30
2017-04-22T01:41:46.825Z,12.20
2017-04-22T01:42:44.285Z,12.10
2017-04-22T01:43:41.701Z,12.10
2017-04-22T01:44:39.513Z,12.10
2017-04-22T01:45:37.372Z,12.10
2017-04-22T01:46:36.181Z,12.10
2017-04-22T01:47:33.989Z,12.20
2017-04-22T01:48:32.102Z,12.20
2017-04-22T01:49:29.933Z,12.20
2017-04-22T01:50:28.126Z,12.20
2017-04-22T01:51:26.004Z,12.10
2017-04-22T01:52:23.861Z,12.10
2017-04-22T01:53:21.690Z,12.10
2017-04-22T01:54:19.585Z,12.10
2017-04-22T01:55:17.412Z,12.10
2017-04-22T01:56:15.266Z,12.10
2017-04-22T01:57:12.762Z,12.10
2017-04-22T01:58:10.590Z,12.00
2017-04-22T01:59:08.437Z,12.00
2017-04-22T02:00:05.866Z,12.00
2017-04-22T02:01:03.713Z,12.10
2017-04-22T02:02:01.937Z,12.10
2017-04-22T02:02:59.802Z,12.10
2017-04-22T02:03:57.226Z,12.10
2017-04-22T02:04:55.066Z,12.00
2017-04-22T02:05:52.914Z,12.00
2017-04-22T02:06:50.344Z,12.00
2017-04-22T02:07:48.261Z,12.00
2017-04-22T02:08:45.736Z,12.00
2017-04-22T02:09:43.882Z,12.00
2017-04-22T02:10:41.701Z,12.00
2017-04-22T02:11:39.545Z,12.10
2017-04-22T02:12:37.389Z,12.00
2017-04-22T02:13:35.217Z,12.00
2017-04-22T02:14:33.478Z,12.00
2017-04-22T02:15:31.318Z,12.00
2017-04-22T02:16:29.149Z,12.00
2017-04-22T02:17:27.015Z,12.00
2017-04-22T02:18:24.453Z,12.00
2017-04-22T02:19:22.297Z,12.00
2017-04-22T02:20:20.181Z,12.10
2017-04-22T02:21:18.026Z,12.10
2017-04-22T02:22:15.465Z,12.10
2017-04-22T02:23:13.295Z,12.10
2017-04-22T02:24:11.118Z,12.10
2017-04-22T02:25:08.546Z,12.10
2017-04-22T02:26:06.069Z,12.20
2017-04-22T02:27:03.902Z,12.20
2017-04-22T02:28:01.332Z,12.20
2017-04-22T02:28:59.159Z,12.10
2017-04-22T02:29:56.592Z,12.10
2017-04-22T02:30:54.461Z,12.10
2017-04-22T02:31:52.394Z,12.00
2017-04-22T02:32:50.218Z,12.10
2017-04-22T02:33:48.031Z,12.10
2017-04-22T02:34:45.847Z,12.20
2017-04-22T02:35:44.055Z,12.20
2017-04-22T02:36:41.881Z,12.10
2017-04-22T02:37:39.743Z,12.10
2017-04-22T02:38:37.553Z,12.10
2017-04-22T02:39:35.609Z,12.10
2017-04-22T02:40:33.030Z,12.10
2017-04-22T02:41:31.209Z,12.00
2017-04-22T02:42:29.055Z,12.00
2017-04-22T02:43:26.929Z,12.10
2017-04-22T02:44:24.358Z,12.10
2017-04-22T02:45:22.171Z,12.00
2017-04-22T02:46:19.987Z,12.00
2017-04-22T02:47:17.809Z,12.00
2017-04-22T02:48:15.231Z,12.10
2017-04-22T02:49:13.082Z,12.10
2017-04-22T02:50:10.917Z,12.00
2017-04-22T02:51:08.347Z,12.00
2017-04-22T02:52:06.153Z,12.00
2017-04-22T02:53:04.013Z,11.90
2017-04-22T02:54:01.445Z,11.90
2017-04-22T02:54:59.302Z,11.90
2017-04-22T02:55:57.117Z,11.90
2017-04-22T02:56:54.938Z,12.00
2017-04-22T02:57:52.767Z,11.90
2017-04-22T02:58:50.594Z,11.90
2017-04-22T02:59:48.401Z,12.00
2017-04-22T03:00:46.285Z,12.10
2017-04-22T03:01:44.481Z,12.10
2017-04-22T03:02:41.896Z,12.10
2017-04-22T03:03:39.717Z,12.10
2017-04-22T03:04:37.545Z,12.10
2017-04-22T03:05:35.374Z,12.10
2017-04-22T03:06:33.270Z,12.10
2017-04-22T03:07:31.105Z,12.10
2017-04-22T03:08:29.114Z,12.10
2017-04-22T03:09:27.317Z,12.10
2017-04-22T03:10:25.128Z,12.00
2017-04-22T03:11:22.953Z,11.90
2017-04-22T03:12:20.813Z,11.90
2017-04-22T03:13:18.633Z,11.90
2017-04-22T03:14:16.493Z,11.90
2017-04-22T03:15:14.317Z,11.90
2017-04-22T03:16:12.131Z,11.90
2017-04-22T03:17:10.033Z,11.90
2017-04-22T03:18:07.910Z,11.90
2017-04-22T03:19:05.725Z,12.00
2017-04-22T03:20:03.548Z,12.00
2017-04-22T03:21:01.366Z,12.00
2017-04-22T03:21:59.189Z,12.00
2017-04-22T03:22:56.994Z,12.00
2017-04-22T03:23:54.897Z,12.00
2017-04-22T03:24:52.720Z,12.00
2017-04-22T03:25:50.578Z,12.00
2017-04-22T03:26:48.406Z,12.00
2017-04-22T03:27:45.834Z,12.00
2017-04-22T03:28:43.669Z,11.90
2017-04-22T03:29:41.564Z,11.90
2017-04-22T03:30:38.994Z,11.90
2017-04-22T03:31:36.846Z,11.90
2017-04-22T03:32:34.686Z,11.90
2017-04-22T03:33:32.809Z,12.00
2017-04-22T03:34:30.633Z,12.00
2017-04-22T03:35:28.176Z,12.00
2017-04-22T03:36:26.392Z,12.10
2017-04-22T03:37:24.214Z,12.10
2017-04-22T03:38:22.034Z,12.10
2017-04-22T03:39:19.858Z,12.10
2017-04-22T03:40:17.705Z,12.20
2017-04-22T03:41:15.573Z,12.20
2017-04-22T03:42:13.482Z,12.20
2017-04-22T03:43:11.302Z,12.20
2017-04-22T03:44:09.153Z,12.20
2017-04-22T03:45:07.001Z,12.20
2017-04-22T03:46:04.434Z,12.20
2017-04-22T03:47:02.309Z,12.10
2017-04-22T03:48:00.213Z,12.10
2017-04-22T03:48:58.033Z,12.10
2017-04-22T03:49:55.869Z,12.10
2017-04-22T03:50:53.713Z,12.00
2017-04-22T03:51:51.579Z,12.00
2017-04-22T03:52:49.481Z,11.90
2017-04-22T03:53:47.681Z,11.90
2017-04-22T03:54:45.121Z,11.90
2017-04-22T03:55:42.953Z,12.00
2017-04-22T03:56:40.777Z,12.00
2017-04-22T03:57:38.245Z,12.00
2017-04-22T03:58:36.493Z,12.00
2017-04-22T03:59:34.695Z,12.00
2017-04-22T04:00:32.126Z,12.00
2017-04-22T04:01:29.982Z,12.00
2017-04-22T04:02:27.854Z,12.00
2017-04-22T04:03:25.282Z,12.00
2017-04-22T04:04:23.537Z,12.00
2017-04-22T04:05:20.973Z,12.00
2017-04-22T04:06:18.810Z,12.10
2017-04-22T04:07:16.649Z,12.10
2017-04-22T04:08:14.525Z,12.20
2017-04-22T04:09:12.397Z,12.20
2017-04-22T04:10:10.279Z,12.30
2017-04-22T04:11:08.121Z,12.40
2017-04-22T04:12:05.593Z,12.40
2017-04-22T04:13:03.418Z,12.50
2017-04-22T04:14:01.626Z,12.50
2017-04-22T04:14:59.458Z,12.60
2017-04-22T04:15:57.322Z,12.70
2017-04-22T04:16:55.170Z,12.70
2017-04-22T04:17:52.609Z,12.70
2017-04-22T04:18:50.598Z,12.70
2017-04-22T04:19:48.417Z,12.80
2017-04-22T04:20:46.253Z,12.80
2017-04-22T04:21:44.120Z,12.90
2017-04-22T04:22:41.944Z,12.90
2017-04-22T04:23:39.837Z,12.90
2017-04-22T04:24:37.703Z,13.00
2017-04-22T04:25:35.526Z,13.00
2017-04-22T04:26:33.485Z,13.00
2017-04-22T04:27:31.377Z,12.90
2017-04-22T04:28:29.181Z,12.90
2017-04-22T04:29:27.007Z,12.80
2017-04-22T04:30:24.829Z,12.80
2017-04-22T04:31:22.649Z,12.80
2017-04-22T04:32:20.480Z,12.70
2017-04-22T04:33:18.370Z,12.70
2017-04-22T04:34:16.204Z,12.60
2017-04-22T04:35:14.047Z,12.60
2017-04-22T04:36:12.025Z,12.60
2017-04-22T04:37:09.438Z,12.60
2017-04-22T04:38:07.265Z,12.50
2017-04-22T04:39:05.373Z,12.50
2017-04-22T04:40:03.181Z,12.40
2017-04-22T04:41:00.995Z,12.40
2017-04-22T04:41:58.405Z,12.40
2017-04-22T04:42:56.224Z,12.40
2017-04-22T04:43:54.046Z,12.40
2017-04-22T04:44:51.550Z,12.40
2017-04-22T04:45:49.373Z,12.40
2017-04-22T04:46:47.186Z,12.40
2017-04-22T04:47:45.029Z,12.30
2017-04-22T04:48:42.850Z,12.30
2017-04-22T04:49:40.272Z,12.30
2017-04-22T04:50:38.142Z,12.20
2017-04-22T04:51:35.981Z,12.20
2017-04-22T04:52:33.793Z,12.20
2017-04-22T04:53:31.647Z,12.20
2017-04-22T04:54:29.498Z,12.30
2017-04-22T04:55:27.333Z,12.30
2017-04-22T04:56:24.789Z,12.30
2017-04-22T04:57:22.621Z,12.50
2017-04-22T04:58:20.433Z,12.60
2017-04-22T04:59:18.253Z,12.60
2017-04-22T05:00:16.121Z,12.70
2017-04-22T05:01:13.957Z,12.80
2017-04-22T05:02:11.449Z,12.80
2017-04-22T05:03:09.287Z,12.80
2017-04-22T05:04:07.121Z,12.90
2017-04-22T05:05:04.566Z,12.90
2017-04-22T05:06:02.374Z,12.90
2017-04-22T05:07:00.217Z,13.00
2017-04-22T05:07:58.473Z,13.00
2017-04-22T05:08:56.309Z,12.90
2017-04-22T05:09:54.171Z,12.80
2017-04-22T05:10:52.033Z,12.80
2017-04-22T05:11:49.889Z,12.80
2017-04-22T05:12:47.724Z,12.80
2017-04-22T05:13:45.585Z,12.80
2017-04-22T05:14:43.411Z,12.80
2017-04-22T05:15:41.605Z,12.80
2017-04-22T05:16:39.449Z,12.90
2017-04-22T05:17:37.283Z,12.90
2017-04-22T05:18:35.105Z,12.90
2017-04-22T05:19:32.966Z,12.90
2017-04-22T05:20:30.792Z,12.90
2017-04-22T05:21:28.635Z,12.90
2017-04-22T05:22:26.071Z,12.90
2017-04-22T05:23:23.893Z,13.00
2017-04-22T05:24:21.797Z,13.00
2017-04-22T05:25:19.354Z,13.00
2017-04-22T05:26:17.174Z,13.00
2017-04-22T05:27:14.609Z,13.00
2017-04-22T05:28:12.452Z,13.00
2017-04-22T05:29:10.481Z,13.00
2017-04-22T05:30:08.306Z,13.00
2017-04-22T05:31:06.542Z,13.00
2017-04-22T05:32:04.366Z,13.10
2017-04-22T05:33:02.225Z,13.10
2017-04-22T05:34:00.078Z,13.10
2017-04-22T05:34:57.652Z,13.10
2017-04-22T05:35:55.473Z,13.20
2017-04-22T05:36:53.677Z,13.30
2017-04-22T05:37:51.524Z,13.30
2017-04-22T05:38:49.350Z,13.30
2017-04-22T05:39:47.249Z,13.40
2017-04-22T05:40:45.077Z,13.40
2017-04-22T05:41:42.909Z,13.40
2017-04-22T05:42:40.394Z,13.40
2017-04-22T05:43:38.213Z,13.40
2017-04-22T05:44:36.045Z,13.40
2017-04-22T05:45:33.891Z,13.40
2017-04-22T05:46:31.704Z,13.50
2017-04-22T05:47:29.529Z,13.50
2017-04-22T05:48:27.009Z,13.50
2017-04-22T05:49:24.981Z,13.50
2017-04-22T05:50:22.808Z,13.50
2017-04-22T05:51:20.650Z,13.50
2017-04-22T05:52:18.092Z,13.50
2017-04-22T05:53:16.298Z,13.50
2017-04-22T05:54:14.171Z,13.40
2017-04-22T05:55:12.058Z,13.20
2017-04-22T05:56:09.881Z,13.10
2017-04-22T05:57:07.701Z,13.00
2017-04-22T05:58:05.539Z,12.70
2017-04-22T05:59:03.007Z,12.70
2017-04-22T06:00:00.889Z,12.40
2017-04-22T06:00:58.718Z,12.30
2017-04-22T06:01:56.557Z,12.30
2017-04-22T06:02:54.406Z,12.20
2017-04-22T06:03:52.590Z,12.20
2017-04-22T06:04:55.287Z,12.20
2017-04-22T06:05:52.753Z,12.20
2017-04-22T06:06:50.645Z,12.30
2017-04-22T06:07:48.510Z,12.30
2017-04-22T06:08:46.689Z,12.30
2017-04-22T06:09:44.521Z,12.30
2017-04-22T06:10:42.357Z,12.30
2017-04-22T06:11:40.209Z,12.20
2017-04-22T06:12:38.062Z,12.20
2017-04-22T06:13:36.211Z,12.20
2017-04-22T06:14:34.043Z,12.20
2017-04-22T06:15:31.865Z,12.30
2017-04-22T06:16:29.685Z,12.20
2017-04-22T06:17:27.562Z,12.20
2017-04-22T06:18:25.379Z,12.20
2017-04-22T06:19:23.524Z,12.20
2017-04-22T06:20:21.745Z,12.10
2017-04-22T06:21:19.562Z,12.10
2017-04-22T06:22:17.753Z,12.10
2017-04-22T06:23:15.625Z,12.20
2017-04-22T06:24:13.447Z,12.20
2017-04-22T06:25:11.278Z,12.20
2017-04-22T06:26:08.717Z,12.30
2017-04-22T06:27:06.542Z,12.10
2017-04-22T06:28:04.383Z,12.00
2017-04-22T06:29:02.289Z,12.00
2017-04-22T06:30:00.107Z,12.00
2017-04-22T06:30:57.935Z,12.00
2017-04-22T06:31:55.750Z,11.90
2017-04-22T06:32:53.661Z,12.00
2017-04-22T06:33:51.533Z,12.00
2017-04-22T06:34:49.002Z,12.00
2017-04-22T06:35:46.841Z,12.10
2017-04-22T06:36:44.690Z,12.10
2017-04-22T06:37:42.126Z,12.10
2017-04-22T06:38:40.337Z,12.10
2017-04-22T06:39:38.161Z,12.20
2017-04-22T06:40:36.107Z,12.30
2017-04-22T06:41:33.929Z,12.30
2017-04-22T06:42:31.762Z,12.20
2017-04-22T06:43:29.206Z,12.30
2017-04-22T06:44:27.053Z,12.40
2017-04-22T06:45:24.949Z,12.40
2017-04-22T06:46:22.821Z,12.50
2017-04-22T06:47:20.631Z,12.50
2017-04-22T06:48:18.457Z,12.60
2017-04-22T06:49:15.893Z,12.60
2017-04-22T06:50:13.733Z,12.70
2017-04-22T06:51:11.557Z,12.70
2017-04-22T06:52:09.446Z,12.60
2017-04-22T06:53:06.949Z,12.50
2017-04-22T06:54:04.851Z,12.60
2017-04-22T06:55:02.720Z,12.60
2017-04-22T06:56:00.918Z,12.50
2017-04-22T06:56:58.784Z,12.60
2017-04-22T06:57:56.279Z,12.60
2017-04-22T06:58:54.144Z,12.60
2017-04-22T06:59:51.969Z,12.60
2017-04-22T07:00:49.794Z,12.60
2017-04-22T07:01:47.232Z,12.60
2017-04-22T07:02:45.049Z,12.40
2017-04-22T07:03:42.914Z,12.40
2017-04-22T07:04:40.729Z,12.40
2017-04-22T07:05:38.541Z,12.40
2017-04-22T07:06:36.737Z,12.40
2017-04-22T07:07:34.973Z,12.30
2017-04-22T07:08:33.177Z,12.30
2017-04-22T07:09:30.646Z,12.30
2017-04-22T07:10:28.454Z,12.40
2017-04-22T07:11:26.633Z,12.40
2017-04-22T07:12:24.461Z,12.50
2017-04-22T07:13:22.282Z,12.60
2017-04-22T07:14:20.117Z,12.60
2017-04-22T07:15:17.974Z,12.60
2017-04-22T07:16:15.805Z,12.50
2017-04-22T07:17:13.645Z,12.40
2017-04-22T07:18:11.833Z,12.50
2017-04-22T07:19:09.666Z,12.50
2017-04-22T07:20:07.862Z,12.70
2017-04-22T07:21:05.729Z,12.70
2017-04-22T07:22:03.580Z,12.70
2017-04-22T07:23:01.413Z,12.60
2017-04-22T07:23:59.255Z,12.60
2017-04-22T07:24:57.116Z,12.60
2017-04-22T07:25:54.926Z,12.50
2017-04-22T07:26:52.777Z,12.40
2017-04-22T07:27:50.617Z,12.30
2017-04-22T07:28:48.457Z,12.20
2017-04-22T07:29:46.287Z,12.10
2017-04-22T07:30:44.561Z,12.10
2017-04-22T07:31:42.042Z,12.10
2017-04-22T07:32:39.533Z,12.10
2017-04-22T07:33:37.349Z,12.10
2017-04-22T07:34:35.180Z,12.10
2017-04-22T07:35:33.019Z,12.10
2017-04-22T07:36:30.858Z,12.10
2017-04-22T07:37:28.677Z,12.20
2017-04-22T07:38:26.566Z,12.30
2017-04-22T07:39:24.390Z,12.20
2017-04-22T07:40:22.265Z,12.20
2017-04-22T07:41:20.545Z,12.20
2017-04-22T07:42:18.434Z,12.20
2017-04-22T07:43:16.653Z,12.30
2017-04-22T07:44:14.557Z,12.20
2017-04-22T07:45:13.193Z,12.20
2017-04-22T07:46:11.038Z,12.30
2017-04-22T07:47:08.879Z,12.30
2017-04-22T07:48:06.694Z,12.20
2017-04-22T07:49:04.130Z,12.20
2017-04-22T07:50:02.030Z,12.30
2017-04-22T07:51:00.070Z,12.30
2017-04-22T07:51:57.911Z,12.30
2017-04-22T07:52:55.752Z,12.30
2017-04-22T07:53:53.583Z,12.30
2017-04-22T07:54:51.001Z,12.30
2017-04-22T07:55:48.861Z,12.40
2017-04-22T07:56:46.733Z,12.30
2017-04-22T07:57:44.554Z,12.20
2017-04-22T07:58:42.410Z,12.20
2017-04-22T07:59:40.597Z,12.20
2017-04-22T08:00:38.544Z,12.20
2017-04-22T08:01:36.806Z,12.10
2017-04-22T08:02:34.628Z,12.10
2017-04-22T08:03:32.458Z,12.10
2017-04-22T08:04:30.346Z,12.20
2017-04-22T08:05:28.157Z,12.20
2017-04-22T08:06:25.973Z,12.20
2017-04-22T08:07:24.222Z,12.30
2017-04-22T08:08:22.059Z,12.30
2017-04-22T08:09:19.887Z,12.30
2017-04-22T08:10:17.736Z,12.40
2017-04-22T08:11:15.556Z,12.30
2017-04-22T08:12:13.428Z,12.30
2017-04-22T08:13:10.922Z,12.30
2017-04-22T08:14:08.770Z,12.30
2017-04-22T08:15:06.730Z,12.20
2017-04-22T08:16:04.634Z,11.90
2017-04-22T08:17:02.478Z,11.80
2017-04-22T08:18:00.310Z,11.70
2017-04-22T08:18:58.192Z,11.60
2017-04-22T08:19:56.054Z,11.60
2017-04-22T08:20:53.879Z,11.60
2017-04-22T08:21:51.718Z,11.60
2017-04-22T08:22:49.173Z,11.60
2017-04-22T08:23:47.026Z,11.50
2017-04-22T08:24:44.918Z,11.60
2017-04-22T08:25:42.769Z,11.70
2017-04-22T08:26:40.607Z,11.80
2017-04-22T08:27:38.449Z,11.80
2017-04-22T08:28:35.904Z,11.80
2017-04-22T08:29:33.741Z,11.80
2017-04-22T08:30:31.629Z,11.80
2017-04-22T08:31:29.107Z,11.80
2017-04-22T08:32:26.982Z,11.70
2017-04-22T08:33:24.453Z,11.70
2017-04-22T08:34:22.269Z,11.60
2017-04-22T08:35:20.126Z,11.50
2017-04-22T08:36:17.973Z,11.60
2017-04-22T08:37:15.450Z,11.60
2017-04-22T08:38:12.901Z,11.50
2017-04-22T08:39:11.162Z,11.60
2017-04-22T08:40:09.404Z,11.70
2017-04-22T08:41:07.296Z,11.80
2017-04-22T08:42:05.177Z,12.00
2017-04-22T08:43:03.018Z,12.00
2017-04-22T08:44:00.851Z,11.80
2017-04-22T08:44:58.666Z,11.60
2017-04-22T08:45:56.478Z,11.60
2017-04-22T08:46:54.681Z,11.60
2017-04-22T08:47:52.566Z,11.60
2017-04-22T08:48:50.622Z,11.70
2017-04-22T08:49:48.449Z,11.60
2017-04-22T08:50:45.874Z,11.60
2017-04-22T08:51:43.297Z,11.60
2017-04-22T08:52:40.750Z,11.80
2017-04-22T08:53:38.233Z,11.90
2017-04-22T08:54:36.811Z,12.00
2017-04-22T08:55:34.633Z,12.00
2017-04-22T08:56:32.465Z,11.80
2017-04-22T08:57:30.287Z,11.70
2017-04-22T08:58:28.110Z,11.80
2017-04-22T08:59:25.982Z,11.90
2017-04-22T09:00:23.801Z,11.80
2017-04-22T09:01:21.990Z,11.80
2017-04-22T09:02:19.419Z,11.80
2017-04-22T09:03:17.250Z,11.70
2017-04-22T09:04:15.077Z,11.50
2017-04-22T09:05:12.575Z,11.50
2017-04-22T09:06:10.415Z,11.10
2017-04-22T09:07:08.241Z,11.00
2017-04-22T09:08:06.105Z,11.10
2017-04-22T09:09:04.510Z,11.00
2017-04-22T09:10:02.325Z,11.00
2017-04-22T09:10:59.805Z,11.00
2017-04-22T09:11:57.667Z,11.10
2017-04-22T09:12:55.506Z,11.00
2017-04-22T09:13:53.331Z,10.90
2017-04-22T09:14:51.163Z,10.90
2017-04-22T09:15:49.019Z,10.90
2017-04-22T09:16:47.286Z,10.90
2017-04-22T09:17:45.485Z,11.00
2017-04-22T09:18:43.331Z,10.90
2017-04-22T09:19:40.764Z,11.00
2017-04-22T09:20:38.588Z,10.90
2017-04-22T09:21:36.417Z,10.90
2017-04-22T09:22:33.893Z,10.90
2017-04-22T09:23:31.759Z,10.50
2017-04-22T09:24:29.573Z,10.30
2017-04-22T09:25:27.402Z,10.10
2017-04-22T09:26:24.846Z,10.10
2017-04-22T09:27:22.681Z,10.30
2017-04-22T09:28:20.614Z,10.50
2017-04-22T09:29:18.441Z,10.50
2017-04-22T09:30:15.870Z,10.50
2017-04-22T09:31:13.696Z,10.80
2017-04-22T09:32:11.521Z,10.80
2017-04-22T09:33:09.357Z,10.60
2017-04-22T09:34:07.222Z,10.70
2017-04-22T09:35:04.933Z,10.70
2017-04-22T09:36:03.129Z,10.80
2017-04-22T09:37:00.981Z,10.90
2017-04-22T09:37:58.814Z,10.80
2017-04-22T09:38:56.649Z,10.90
2017-04-22T09:39:54.525Z,11.00
2017-04-22T09:40:52.359Z,10.80
2017-04-22T09:41:50.210Z,10.60
2017-04-22T09:42:48.455Z,10.60
2017-04-22T09:43:46.279Z,10.60
2017-04-22T09:44:44.149Z,10.50
2017-04-22T09:45:42.024Z,10.40
2017-04-22T09:46:39.848Z,10.40
2017-04-22T09:47:37.721Z,10.40
2017-04-22T09:48:35.547Z,10.40
2017-04-22T09:49:32.974Z,10.40
2017-04-22T09:50:30.795Z,10.60
2017-04-22T09:51:28.659Z,10.60
2017-04-22T09:52:26.081Z,10.60
2017-04-22T09:53:23.514Z,10.70
2017-04-22T09:54:21.335Z,10.90
2017-04-22T09:55:19.209Z,10.90
2017-04-22T09:56:16.638Z,10.90
2017-04-22T09:57:14.779Z,10.90
2017-04-22T09:58:12.647Z,10.80
2017-04-22T09:59:10.479Z,10.80
2017-04-22T10:00:08.319Z,10.80
2017-04-22T10:01:06.214Z,10.70
2017-04-22T10:02:04.030Z,10.60
2017-04-22T10:03:01.898Z,10.60
2017-04-22T10:03:59.723Z,10.70
2017-04-22T10:04:57.161Z,10.70
2017-04-22T10:05:55.009Z,11.00
2017-04-22T10:06:52.950Z,11.20
2017-04-22T10:07:50.773Z,11.20
2017-04-22T10:08:48.242Z,11.20
2017-04-22T10:09:46.115Z,11.10
2017-04-22T10:10:43.933Z,11.20
2017-04-22T10:11:41.778Z,11.20
2017-04-22T10:12:39.603Z,11.20
2017-04-22T10:13:37.807Z,11.20
2017-04-22T10:14:35.673Z,11.20
2017-04-22T10:15:33.748Z,11.10
2017-04-22T10:16:31.591Z,11.00
2017-04-22T10:17:29.389Z,11.00
2017-04-22T10:18:27.206Z,11.10
2017-04-22T10:19:25.025Z,11.30
2017-04-22T10:20:22.889Z,11.50
2017-04-22T10:21:20.730Z,11.50
2017-04-22T10:22:18.537Z,11.50
2017-04-22T10:23:16.349Z,11.40
2017-04-22T10:24:14.201Z,11.40
2017-04-22T10:25:12.034Z,11.50
2017-04-22T10:26:09.533Z,11.50
2017-04-22T10:27:07.358Z,11.20
2017-04-22T10:28:04.821Z,11.20
2017-04-22T10:29:02.641Z,10.90
2017-04-22T10:30:00.461Z,10.80
2017-04-22T10:30:58.277Z,10.80
2017-04-22T10:31:56.138Z,10.90
2017-04-22T10:32:54.330Z,11.10
2017-04-22T10:33:51.811Z,11.10
2017-04-22T10:34:49.651Z,11.30
2017-04-22T10:35:47.465Z,11.40
2017-04-22T10:36:45.306Z,11.40
2017-04-22T10:37:43.161Z,11.40
2017-04-22T10:38:40.961Z,11.40
2017-04-22T10:39:38.770Z,11.50
2017-04-22T10:40:36.573Z,11.70
2017-04-22T10:41:34.373Z,11.80
2017-04-22T10:42:31.786Z,11.80
2017-04-22T10:43:29.238Z,11.90
2017-04-22T10:44:27.044Z,12.00
2017-04-22T10:45:24.841Z,12.00
2017-04-22T10:46:22.650Z,12.00
2017-04-22T10:47:20.457Z,12.00
2017-04-22T10:48:18.262Z,12.00
2017-04-22T10:49:16.477Z,11.90
2017-04-22T10:50:14.282Z,11.70
2017-04-22T10:51:12.653Z,11.60
2017-04-22T10:52:10.458Z,11.60
2017-04-22T10:53:08.281Z,11.60
2017-04-22T10:54:05.701Z,11.60
2017-04-22T10:55:03.169Z,11.60
2017-04-22T10:56:00.993Z,11.70
2017-04-22T10:56:58.826Z,11.70
2017-04-22T10:57:56.639Z,11.70
2017-04-22T10:58:54.445Z,11.80
2017-04-22T10:59:52.341Z,11.80
2017-04-22T11:00:50.185Z,11.90
2017-04-22T11:01:47.993Z,11.90
2017-04-22T11:02:45.806Z,11.90
2017-04-22T11:03:43.614Z,11.90
2017-04-22T11:04:41.422Z,11.70
2017-04-22T11:05:39.673Z,11.50
2017-04-22T11:06:37.909Z,11.40
2017-04-22T11:07:36.130Z,11.40
2017-04-22T11:08:33.929Z,11.30
2017-04-22T11:09:31.733Z,11.30
2017-04-22T11:10:29.545Z,11.30
2017-04-22T11:11:27.383Z,11.40
2017-04-22T11:12:24.841Z,11.40
2017-04-22T11:13:22.747Z,11.70
2017-04-22T11:14:20.565Z,12.00
2017-04-22T11:15:17.990Z,12.00
2017-04-22T11:16:15.821Z,12.10
2017-04-22T11:17:13.622Z,12.10
2017-04-22T11:18:11.111Z,12.10
2017-04-22T11:19:08.926Z,11.80
2017-04-22T11:20:06.737Z,11.70
2017-04-22T11:21:04.145Z,11.70
2017-04-22T11:22:01.954Z,11.80
2017-04-22T11:22:59.365Z,11.80
2017-04-22T11:23:56.841Z,11.90
2017-04-22T11:24:54.257Z,11.90
2017-04-22T11:25:51.667Z,12.00
2017-04-22T11:26:49.569Z,12.10
2017-04-22T11:27:47.378Z,12.10
2017-04-22T11:28:45.191Z,12.20
2017-04-22T11:29:43.051Z,12.30
2017-04-22T11:30:40.466Z,12.30
2017-04-22T11:31:38.297Z,12.20
2017-04-22T11:32:36.101Z,12.10
2017-04-22T11:33:33.677Z,12.10
2017-04-22T11:34:31.502Z,11.70
2017-04-22T11:35:29.383Z,11.60
2017-04-22T11:36:26.813Z,11.60
2017-04-22T11:37:24.233Z,11.60
2017-04-22T11:38:22.046Z,11.60
2017-04-22T11:39:19.864Z,11.70
2017-04-22T11:40:18.065Z,11.70
2017-04-22T11:41:15.921Z,11.70
2017-04-22T11:42:13.742Z,11.70
2017-04-22T11:43:11.154Z,11.70
2017-04-22T11:44:10.309Z,11.50
2017-04-22T11:45:08.125Z,11.50
2017-04-22T11:46:05.543Z,11.50
2017-04-22T11:47:03.394Z,11.40
2017-04-22T11:48:01.209Z,11.40
2017-04-22T11:48:58.630Z,11.40
2017-04-22T11:49:56.464Z,11.20
2017-04-22T11:50:54.297Z,11.20
2017-04-22T11:51:51.735Z,11.20
2017-04-22T11:52:49.599Z,11.20
2017-04-22T11:53:47.411Z,11.30
2017-04-22T11:54:44.817Z,11.30
2017-04-22T11:55:42.635Z,11.30
2017-04-22T11:56:40.494Z,11.30
2017-04-22T11:57:37.906Z,11.30
2017-04-22T11:58:35.754Z,11.00
2017-04-22T11:59:33.160Z,11.00
2017-04-22T12:00:30.965Z,11.20
2017-04-22T12:01:28.773Z,11.30
2017-04-22T12:02:26.588Z,11.30
2017-04-22T12:03:23.993Z,11.30
2017-04-22T12:04:21.849Z,11.10
2017-04-22T12:05:19.662Z,11.00
2017-04-22T12:06:17.076Z,11.00
2017-04-22T12:07:14.951Z,10.90
2017-04-22T12:08:12.849Z,10.80
2017-04-22T12:09:10.675Z,10.80
2017-04-22T12:10:08.537Z,10.70
2017-04-22T12:11:06.438Z,10.70
2017-04-22T12:12:04.251Z,10.80
2017-04-22T12:13:01.678Z,10.80
2017-04-22T12:13:59.105Z,10.80
2017-04-22T12:14:56.923Z,10.80
2017-04-22T12:15:54.783Z,10.90
2017-04-22T12:16:52.588Z,11.00
2017-04-22T12:17:50.395Z,11.10
2017-04-22T12:18:48.222Z,11.10
2017-04-22T12:19:46.038Z,11.10
2017-04-22T12:20:43.887Z,11.20
2017-04-22T12:21:41.821Z,11.30
2017-04-22T12:22:39.630Z,11.30
2017-04-22T12:23:37.102Z,11.30
2017-04-22T12:24:34.533Z,11.20